Time;durP1;ratioP1;P1;durP2;ratioP2;P2;SDS_P1;SDS_P2;PMS_P1;PMS_P2;Temp;Humidity;BMP_temperature;BMP_pressure;BME280_temperature;BME280_humidity;BME280_pressure;Samples;Min_cycle;Max_cycle;Signal;HPM_P1;HPM_P2
2022/06/05 00:01:44;;;;;;;1.08;0.90;;;12.50;57.10;;;;;;4970690;28;20616;-48
2022/06/05 00:04:26;;;;;;;1.30;1.00;;;12.50;57.80;;;;;;4970603;28;20209;-48
2022/06/05 00:07:06;;;;;;;0.82;0.77;;;12.50;57.10;;;;;;4974298;28;20213;-48
2022/06/05 00:09:45;;;;;;;2.17;0.90;;;12.50;57.20;;;;;;4974500;28;20236;-47
2022/06/05 00:12:19;;;;;;;1.40;0.85;;;12.60;57.20;;;;;;4974985;28;20268;-47
2022/06/05 00:14:50;;;;;;;1.10;0.90;;;12.60;57.10;;;;;;4974857;28;20204;-48
2022/06/05 00:17:22;;;;;;;0.85;0.82;;;12.60;57.20;;;;;;4975125;28;20593;-49
2022/06/05 00:19:55;;;;;;;1.10;1.00;;;12.60;57.20;;;;;;4977046;28;20655;-47
2022/06/05 00:22:25;;;;;;;1.17;1.08;;;12.60;57.20;;;;;;4994160;28;20209;-49
2022/06/05 00:24:56;;;;;;;1.92;0.90;;;12.60;57.20;;;;;;4993751;28;20197;-49
2022/06/05 00:27:36;;;;;;;1.15;1.00;;;12.70;57.20;;;;;;4993622;28;20249;-51
2022/06/05 00:30:12;;;;;;;1.40;1.10;;;12.70;57.30;;;;;;4993437;28;20693;-47
2022/06/05 00:32:46;;;;;;;2.53;1.30;;;12.70;57.30;;;;;;4993638;28;20205;-47
2022/06/05 00:35:18;;;;;;;1.67;0.95;;;12.70;57.30;;;;;;4993154;28;20198;-50
2022/06/05 00:37:59;;;;;;;3.10;1.10;;;12.80;57.40;;;;;;4993386;28;20602;-50
2022/06/05 00:40:38;;;;;;;1.92;1.10;;;12.70;57.40;;;;;;4993230;28;20201;-47
2022/06/05 00:43:15;;;;;;;1.52;1.10;;;12.80;57.40;;;;;;4993402;28;20193;-47
2022/06/05 00:45:47;;;;;;;1.40;1.08;;;12.80;57.40;;;;;;4993391;28;20189;-49
2022/06/05 00:48:17;;;;;;;3.65;1.15;;;12.90;57.40;;;;;;4993501;28;20205;-48
2022/06/05 00:50:49;;;;;;;2.92;1.60;;;12.90;57.40;;;;;;4992921;28;20674;-49
2022/06/05 00:53:19;;;;;;;2.20;1.00;;;12.90;58.00;;;;;;4993530;28;20284;-55
2022/06/05 00:55:53;;;;;;;1.48;1.10;;;12.90;57.40;;;;;;4993366;28;20743;-47
2022/06/05 00:58:25;;;;;;;1.40;0.93;;;12.90;57.40;;;;;;4993384;28;20212;-47
2022/06/05 01:00:57;;;;;;;3.80;1.30;;;13.00;57.40;;;;;;4993497;28;20197;-49
2022/06/05 01:03:28;;;;;;;2.05;1.10;;;13.00;57.40;;;;;;4993413;28;20206;-47
2022/06/05 01:05:59;;;;;;;3.47;1.45;;;13.00;57.40;;;;;;4992978;28;20418;-52
2022/06/05 01:08:30;;;;;;;1.73;1.25;;;13.00;57.40;;;;;;4993034;28;20208;-47
2022/06/05 01:11:09;;;;;;;2.70;1.70;;;13.10;57.40;;;;;;4993487;28;20193;-47
2022/06/05 01:13:51;;;;;;;1.30;1.10;;;13.10;57.40;;;;;;4993053;28;20202;-47
2022/06/05 01:16:27;;;;;;;3.33;1.33;;;13.10;57.40;;;;;;4992376;28;20241;-49
2022/06/05 01:19:07;;;;;;;2.78;1.20;;;13.10;57.40;;;;;;4993102;28;20212;-53
2022/06/05 01:22:16;;;;;;;3.63;1.30;;;13.20;58.10;;;;;;4992650;28;20200;-53
2022/06/05 01:25:14;;;;;;;2.67;1.50;;;13.20;57.50;;;;;;4992533;28;20291;-47
2022/06/05 01:27:51;;;;;;;3.33;1.60;;;13.20;57.50;;;;;;4962543;28;20221;-47
2022/06/05 01:30:24;;;;;;;2.42;1.20;;;13.20;57.50;;;;;;4992722;28;20235;-49
2022/06/05 01:33:00;;;;;;;3.42;1.40;;;13.20;57.50;;;;;;4992737;28;20209;-50
2022/06/05 01:35:38;;;;;;;1.60;1.20;;;13.30;57.60;;;;;;4992494;28;20685;-58
2022/06/05 01:38:13;;;;;;;2.58;1.50;;;13.30;57.50;;;;;;4992801;28;20228;-47
2022/06/05 01:40:47;;;;;;;2.17;1.30;;;13.30;57.50;;;;;;4992521;28;20216;-49
2022/06/05 01:43:24;;;;;;;2.47;1.25;;;13.40;57.50;;;;;;4992462;28;20712;-49
2022/06/05 01:45:57;;;;;;;2.17;1.30;;;13.30;57.50;;;;;;4992176;28;20550;-47
2022/06/05 01:48:32;;;;;;;3.85;1.50;;;13.40;57.50;;;;;;4992735;28;20225;-51
2022/06/05 01:51:06;;;;;;;2.90;1.50;;;13.40;57.50;;;;;;4986827;28;20205;-49
2022/06/05 01:53:40;;;;;;;3.42;1.60;;;13.40;57.50;;;;;;4992019;28;20197;-48
2022/06/05 01:56:17;;;;;;;3.10;1.60;;;13.50;57.50;;;;;;4992051;28;20217;-48
2022/06/05 01:58:54;;;;;;;4.20;1.45;;;13.40;57.50;;;;;;4992479;28;20200;-47
2022/06/05 02:01:29;;;;;;;3.85;1.88;;;13.50;57.50;;;;;;4992391;28;20551;-48
2022/06/05 02:04:04;;;;;;;3.45;2.40;;;13.50;57.50;;;;;;4992479;28;20271;-48
2022/06/05 02:06:40;;;;;;;2.45;1.98;;;13.50;57.50;;;;;;4992059;28;20689;-53
2022/06/05 02:09:15;;;;;;;3.10;1.85;;;13.50;57.40;;;;;;4992024;28;20225;-48
2022/06/05 02:11:46;;;;;;;3.85;2.13;;;13.50;57.40;;;;;;4992041;28;20264;-47
2022/06/05 02:14:19;;;;;;;3.85;2.10;;;13.60;57.50;;;;;;4992239;28;20202;-48
2022/06/05 02:16:49;;;;;;;3.95;2.17;;;13.60;57.50;;;;;;4992540;28;20221;-50
2022/06/05 02:19:23;;;;;;;5.25;2.50;;;13.60;57.50;;;;;;4992090;28;20197;-56
2022/06/05 02:21:56;;;;;;;4.43;2.15;;;13.60;57.50;;;;;;4991406;28;20248;-48
2022/06/05 02:24:28;;;;;;;3.58;2.50;;;13.60;57.50;;;;;;4991790;28;20202;-48
2022/06/05 02:27:01;;;;;;;3.40;2.40;;;13.70;57.50;;;;;;4991596;28;20225;-49
2022/06/05 02:29:34;;;;;;;4.90;2.55;;;13.60;57.40;;;;;;4991179;28;20307;-50
2022/06/05 02:32:17;;;;;;;3.78;2.75;;;13.70;57.50;;;;;;4991797;28;20352;-48
2022/06/05 02:34:56;;;;;;;3.03;2.40;;;13.70;57.50;;;;;;4991677;28;20205;-49
2022/06/05 02:37:44;;;;;;;3.75;2.65;;;13.70;57.50;;;;;;4991031;28;20213;-47
2022/06/05 02:40:27;;;;;;;3.17;2.40;;;13.70;57.50;;;;;;4991482;28;20287;-47
2022/06/05 02:43:08;;;;;;;3.40;2.50;;;13.70;57.50;;;;;;4991544;28;20197;-48
2022/06/05 02:45:56;;;;;;;4.55;2.88;;;13.80;57.50;;;;;;4991835;28;20570;-47
2022/06/05 02:48:35;;;;;;;4.70;2.65;;;13.80;57.50;;;;;;4991658;28;20197;-47
2022/06/05 02:51:10;;;;;;;4.65;2.50;;;13.80;57.50;;;;;;4991047;28;20756;-48
2022/06/05 02:53:52;;;;;;;3.58;2.70;;;13.80;57.50;;;;;;4991127;28;20204;-49
2022/06/05 02:56:24;;;;;;;3.00;2.47;;;13.80;57.50;;;;;;4990922;28;20221;-47
2022/06/05 02:58:56;;;;;;;2.90;2.47;;;13.80;57.50;;;;;;4990498;28;20210;-49
2022/06/05 03:04:15;;;;;;;3.80;2.75;;;13.90;57.50;;;;;;4991248;28;20209;-47
2022/06/05 03:06:46;;;;;;;3.80;2.40;;;13.90;57.50;;;;;;4990984;28;20218;-47
2022/06/05 03:09:20;;;;;;;3.92;2.75;;;13.90;57.50;;;;;;4990654;28;20559;-48
2022/06/05 03:11:51;;;;;;;3.22;2.30;;;13.90;57.50;;;;;;4991196;28;20233;-49
2022/06/05 03:14:22;;;;;;;3.78;2.63;;;13.90;57.50;;;;;;4990745;28;20341;-54
2022/06/05 03:16:55;;;;;;;3.53;2.78;;;13.90;57.60;;;;;;4990509;28;20539;-48
2022/06/05 03:19:25;;;;;;;3.05;2.60;;;14.00;57.60;;;;;;4990380;28;20823;-49
2022/06/05 03:21:56;;;;;;;3.95;2.70;;;14.00;57.60;;;;;;4989933;28;20198;-47
2022/06/05 03:24:27;;;;;;;3.30;2.40;;;14.00;57.60;;;;;;4990166;28;20205;-48
2022/06/05 03:26:57;;;;;;;3.40;2.40;;;14.00;57.60;;;;;;4990532;28;20221;-52
2022/06/05 03:29:28;;;;;;;4.45;2.72;;;14.00;57.60;;;;;;4989860;28;20213;-47
2022/06/05 03:32:01;;;;;;;4.20;2.75;;;14.00;57.60;;;;;;4990274;28;20209;-51
2022/06/05 03:34:31;;;;;;;5.13;2.53;;;14.00;57.60;;;;;;4990413;28;20197;-54
2022/06/05 03:37:03;;;;;;;4.38;2.50;;;14.00;57.60;;;;;;4989935;28;20221;-48
2022/06/05 03:39:34;;;;;;;3.45;2.72;;;14.00;57.60;;;;;;4989466;28;20745;-48
2022/06/05 03:42:06;;;;;;;3.55;2.75;;;14.10;57.70;;;;;;4990683;28;20194;-47
2022/06/05 03:44:40;;;;;;;3.65;2.75;;;14.10;57.70;;;;;;4980439;28;20201;-51
2022/06/05 03:47:13;;;;;;;3.72;2.63;;;14.10;57.70;;;;;;4970142;28;20218;-52
2022/06/05 03:49:44;;;;;;;3.38;2.63;;;14.10;57.70;;;;;;4969439;28;20221;-48
2022/06/05 03:52:15;;;;;;;3.03;2.20;;;14.10;57.70;;;;;;4976571;28;20563;-49
2022/06/05 03:54:45;;;;;;;3.35;2.30;;;14.10;57.70;;;;;;4970663;28;20202;-47
2022/06/05 03:57:16;;;;;;;3.72;2.65;;;14.10;57.70;;;;;;4970418;28;20226;-48
2022/06/05 03:59:48;;;;;;;2.50;2.30;;;14.20;57.70;;;;;;4970282;28;20205;-48
2022/06/05 04:02:21;;;;;;;3.55;2.80;;;14.20;57.70;;;;;;4970169;28;20552;-48
2022/06/05 04:04:51;;;;;;;3.42;2.42;;;14.20;57.70;;;;;;4975118;28;20198;-48
2022/06/05 04:07:23;;;;;;;4.00;2.53;;;14.20;57.70;;;;;;4989988;28;20697;-47
2022/06/05 04:09:53;;;;;;;3.40;2.60;;;14.20;57.70;;;;;;4989530;28;20229;-48
2022/06/05 04:12:24;;;;;;;3.53;2.45;;;14.20;57.70;;;;;;4989668;28;20205;-48
2022/06/05 04:14:55;;;;;;;3.80;2.83;;;14.20;57.70;;;;;;4989516;28;20194;-51
2022/06/05 04:17:27;;;;;;;3.05;2.33;;;14.20;57.70;;;;;;4989202;28;20624;-55
2022/06/05 04:19:58;;;;;;;3.60;2.78;;;14.20;57.70;;;;;;4990004;28;20204;-49
2022/06/05 04:22:29;;;;;;;3.90;2.80;;;14.20;57.70;;;;;;4981928;28;20288;-49
2022/06/05 04:25:00;;;;;;;3.92;2.92;;;14.20;57.70;;;;;;4974445;28;20198;-48
2022/06/05 04:27:31;;;;;;;3.47;2.67;;;14.30;57.80;;;;;;4969618;28;20218;-51
2022/06/05 04:30:04;;;;;;;3.45;2.53;;;14.30;57.80;;;;;;4969785;28;20832;-48
2022/06/05 04:32:36;;;;;;;3.33;2.60;;;14.30;57.80;;;;;;4970483;28;20201;-64
2022/06/05 04:35:08;;;;;;;2.95;2.60;;;14.30;57.80;;;;;;4970017;28;20611;-47
2022/06/05 04:37:38;;;;;;;3.72;2.47;;;14.30;57.80;;;;;;4981205;28;20217;-48
2022/06/05 04:40:10;;;;;;;4.03;2.50;;;14.30;57.80;;;;;;4978958;28;20245;-47
2022/06/05 04:42:41;;;;;;;3.90;2.78;;;14.30;57.80;;;;;;4969840;28;20195;-48
2022/06/05 04:45:12;;;;;;;4.13;2.78;;;14.30;57.80;;;;;;4970086;28;20194;-52
2022/06/05 04:47:46;;;;;;;4.30;2.80;;;14.30;57.80;;;;;;4969715;28;20217;-48
2022/06/05 04:50:16;;;;;;;3.45;2.90;;;14.30;57.80;;;;;;4969485;28;20854;-47
2022/06/05 04:52:47;;;;;;;4.05;3.05;;;14.30;57.80;;;;;;4985724;28;20205;-49
2022/06/05 04:55:18;;;;;;;3.58;3.00;;;14.30;57.80;;;;;;4973601;28;20205;-48
2022/06/05 04:57:48;;;;;;;3.58;3.10;;;14.30;57.80;;;;;;4973811;28;20218;-48
2022/06/05 05:00:19;;;;;;;4.25;2.85;;;14.30;57.80;;;;;;4973735;28;20198;-48
2022/06/05 05:02:52;;;;;;;3.95;2.95;;;14.30;57.70;;;;;;4973755;28;20202;-50
2022/06/05 05:05:23;;;;;;;3.88;3.10;;;14.30;57.80;;;;;;4973578;28;20223;-50
2022/06/05 05:07:54;;;;;;;3.08;2.78;;;14.30;57.80;;;;;;4985496;28;20224;-48
2022/06/05 05:10:24;;;;;;;3.95;3.38;;;14.40;58.00;;;;;;4992653;28;20245;-48
2022/06/05 05:12:55;;;;;;;4.13;3.10;;;14.40;58.20;;;;;;5000122;28;20201;-56
2022/06/05 05:15:26;;;;;;;4.60;3.35;;;14.40;58.40;;;;;;5005354;28;20197;-58
2022/06/05 05:17:58;;;;;;;3.38;2.70;;;14.40;58.30;;;;;;5003666;28;20233;-50
2022/06/05 05:20:29;;;;;;;3.92;3.45;;;14.40;58.30;;;;;;5006534;28;20201;-51
2022/06/05 05:23:00;;;;;;;3.35;2.65;;;14.40;58.20;;;;;;5008868;28;20204;-54
2022/06/05 05:25:31;;;;;;;3.80;2.97;;;14.50;58.30;;;;;;5010214;28;20200;-54
2022/06/05 05:28:01;;;;;;;3.25;2.90;;;14.50;58.20;;;;;;5008098;28;20239;-50
2022/06/05 05:30:32;;;;;;;3.70;3.10;;;14.50;58.20;;;;;;5007857;28;20233;-60
2022/06/05 05:33:05;;;;;;;3.30;2.83;;;14.50;58.20;;;;;;5009729;28;20189;-56
2022/06/05 05:35:35;;;;;;;3.55;2.70;;;14.50;58.10;;;;;;5007732;28;20200;-56
2022/06/05 05:38:06;;;;;;;3.53;2.92;;;14.50;58.10;;;;;;5005658;28;20731;-47
2022/06/05 05:43:24;;;;;;;3.38;3.00;;;14.50;58.00;;;;;;5011232;28;20200;-51
2022/06/05 05:45:54;;;;;;;4.13;3.15;;;14.50;58.00;;;;;;5009097;28;20204;-52
2022/06/05 05:48:27;;;;;;;4.43;3.17;;;14.50;58.00;;;;;;5008761;28;20201;-49
2022/06/05 05:50:57;;;;;;;3.40;3.08;;;14.50;58.00;;;;;;5004439;28;20239;-47
2022/06/05 05:53:28;;;;;;;3.72;3.00;;;14.50;58.00;;;;;;5009600;28;20212;-52
2022/06/05 05:55:59;;;;;;;5.00;3.20;;;14.50;58.00;;;;;;5008974;28;20201;-50
2022/06/05 05:58:29;;;;;;;3.15;2.70;;;14.50;58.00;;;;;;5009996;28;20205;-47
2022/06/05 06:01:05;;;;;;;3.08;2.78;;;14.50;58.00;;;;;;5009517;28;20189;-48
2022/06/05 06:03:38;;;;;;;3.25;2.63;;;14.50;58.00;;;;;;5009066;28;20200;-47
2022/06/05 06:06:08;;;;;;;4.22;2.97;;;14.50;58.00;;;;;;5009287;28;20219;-48
2022/06/05 06:08:39;;;;;;;3.70;2.75;;;14.50;58.00;;;;;;5008461;28;20204;-48
2022/06/05 06:11:10;;;;;;;3.70;2.83;;;14.50;58.00;;;;;;5009786;28;20217;-48
2022/06/05 06:13:41;;;;;;;3.53;2.90;;;14.50;58.00;;;;;;5007957;28;20212;-50
2022/06/05 06:16:11;;;;;;;3.17;2.58;;;14.50;58.00;;;;;;5009548;28;20942;-48
2022/06/05 06:18:44;;;;;;;3.00;2.70;;;14.50;57.90;;;;;;5009470;28;20204;-50
2022/06/05 06:21:15;;;;;;;3.80;2.50;;;14.50;57.90;;;;;;5009221;28;20913;-57
2022/06/05 06:23:45;;;;;;;3.65;2.78;;;14.50;57.90;;;;;;5006876;28;20202;-47
2022/06/05 06:26:16;;;;;;;3.80;2.90;;;14.50;57.90;;;;;;5004828;28;20217;-48
2022/06/05 06:28:47;;;;;;;3.92;2.63;;;14.50;57.90;;;;;;5007168;28;20220;-54
2022/06/05 06:31:18;;;;;;;3.35;3.05;;;14.50;57.90;;;;;;5005455;28;20231;-50
2022/06/05 06:33:51;;;;;;;3.75;2.92;;;14.50;57.90;;;;;;5004409;28;20201;-53
2022/06/05 06:36:22;;;;;;;3.53;2.70;;;14.50;57.90;;;;;;5004726;28;20218;-49
2022/06/05 06:38:53;;;;;;;3.05;2.33;;;14.50;57.90;;;;;;5009484;28;20196;-48
2022/06/05 06:41:24;;;;;;;3.83;2.88;;;14.50;58.00;;;;;;5006144;28;20563;-52
2022/06/05 06:43:55;;;;;;;2.67;2.47;;;14.50;58.00;;;;;;5007451;28;20189;-48
2022/06/05 06:46:25;;;;;;;3.60;2.65;;;14.50;58.00;;;;;;5002642;28;20599;-50
2022/06/05 06:48:58;;;;;;;3.13;2.67;;;14.50;58.00;;;;;;5006114;28;20206;-47
2022/06/05 06:51:29;;;;;;;3.25;2.80;;;14.50;58.00;;;;;;5007195;28;20239;-53
2022/06/05 06:53:59;;;;;;;3.80;3.13;;;14.50;58.00;;;;;;5007316;28;20196;-52
2022/06/05 06:56:32;;;;;;;4.03;3.03;;;14.50;58.10;;;;;;5007477;28;20216;-52
2022/06/05 06:59:04;;;;;;;3.53;2.60;;;14.50;58.10;;;;;;5008131;28;20193;-48
2022/06/05 07:01:35;;;;;;;3.50;3.20;;;14.50;58.10;;;;;;5008532;28;20200;-55
2022/06/05 07:04:07;;;;;;;3.80;2.67;;;14.50;58.10;;;;;;5006691;28;20207;-51
2022/06/05 07:06:38;;;;;;;3.70;3.10;;;14.50;58.00;;;;;;5007034;28;20223;-50
2022/06/05 07:09:09;;;;;;;3.40;2.95;;;14.50;58.00;;;;;;5006949;28;20193;-53
2022/06/05 07:11:39;;;;;;;4.00;2.97;;;14.50;58.00;;;;;;5007405;28;20228;-53
2022/06/05 07:14:10;;;;;;;3.75;3.40;;;14.50;58.00;;;;;;5007693;28;20886;-57
2022/06/05 07:16:41;;;;;;;3.78;2.88;;;14.50;58.00;;;;;;5004778;28;20224;-48
2022/06/05 07:19:14;;;;;;;4.80;3.70;;;14.50;58.00;;;;;;5007444;28;20642;-57
2022/06/05 07:21:44;;;;;;;4.53;3.50;;;14.50;58.00;;;;;;5007447;28;20227;-50
2022/06/05 07:24:15;;;;;;;4.07;3.50;;;14.50;58.00;;;;;;5007118;28;20189;-54
2022/06/05 07:26:46;;;;;;;4.53;3.28;;;14.50;58.00;;;;;;5007470;28;20725;-54
2022/06/05 07:29:16;;;;;;;5.15;4.10;;;14.50;58.00;;;;;;5007410;28;20692;-55
2022/06/05 07:31:47;;;;;;;4.80;3.70;;;14.50;58.00;;;;;;5007106;28;20220;-56
2022/06/05 07:34:20;;;;;;;4.45;3.40;;;14.50;58.00;;;;;;5008528;28;20189;-53
2022/06/05 07:36:51;;;;;;;4.35;3.65;;;14.50;58.00;;;;;;5007137;28;20220;-58
2022/06/05 07:39:21;;;;;;;4.22;3.67;;;14.50;58.00;;;;;;5006086;28;20185;-49
2022/06/05 07:41:52;;;;;;;5.18;3.70;;;14.50;58.00;;;;;;5006266;28;20189;-53
2022/06/05 07:44:23;;;;;;;5.25;3.90;;;14.50;58.00;;;;;;5008221;28;20205;-56
2022/06/05 07:46:53;;;;;;;4.72;3.95;;;14.50;58.00;;;;;;5007099;28;20216;-48
2022/06/05 07:49:26;;;;;;;4.68;3.90;;;14.50;58.00;;;;;;5005971;28;20559;-57
2022/06/05 07:54:43;;;;;;;5.38;4.40;;;14.50;58.00;;;;;;4992119;28;20201;-51
2022/06/05 07:57:15;;;;;;;4.63;3.75;;;14.50;57.90;;;;;;4991820;28;20291;-55
2022/06/05 07:59:46;;;;;;;4.72;3.70;;;14.50;57.90;;;;;;4991999;28;20200;-53
2022/06/05 08:02:18;;;;;;;4.30;3.75;;;14.50;58.00;;;;;;4991924;28;20201;-56
2022/06/05 08:04:52;;;;;;;5.55;4.20;;;14.50;58.00;;;;;;4992072;28;20200;-52
2022/06/05 08:07:24;;;;;;;4.47;4.00;;;14.50;58.00;;;;;;4991305;28;20230;-51
2022/06/05 08:09:54;;;;;;;5.25;3.85;;;14.50;58.00;;;;;;4991379;28;20209;-55
2022/06/05 08:12:27;;;;;;;5.40;3.72;;;14.50;58.00;;;;;;4991750;28;20225;-58
2022/06/05 08:14:58;;;;;;;5.18;3.97;;;14.50;58.10;;;;;;4992083;28;20654;-57
2022/06/05 08:17:32;;;;;;;4.53;3.78;;;14.50;58.10;;;;;;4991419;28;20225;-56
2022/06/05 08:20:05;;;;;;;5.80;3.70;;;14.50;58.10;;;;;;4991755;28;20201;-48
2022/06/05 08:22:36;;;;;;;6.00;4.68;;;14.50;58.10;;;;;;4991487;28;20205;-55
2022/06/05 08:25:07;;;;;;;4.88;3.97;;;14.50;58.00;;;;;;4991912;28;20197;-50
2022/06/05 08:27:38;;;;;;;5.20;4.18;;;14.50;58.00;;;;;;4995087;28;20217;-55
2022/06/05 08:30:10;;;;;;;4.50;3.83;;;14.50;58.00;;;;;;4995716;28;20686;-53
2022/06/05 08:32:40;;;;;;;5.20;4.20;;;14.50;58.00;;;;;;4994959;28;20316;-56
2022/06/05 08:35:13;;;;;;;5.25;4.25;;;14.50;58.00;;;;;;4994781;28;20194;-55
2022/06/05 08:43:34;;;;;;;5.57;3.90;;;14.50;58.00;;;;;;4995573;28;20201;-56
2022/06/05 08:46:12;;;;;;;5.00;4.10;;;14.50;58.00;;;;;;4994683;28;20256;-55
2022/06/05 08:48:46;;;;;;;4.30;3.75;;;14.50;58.00;;;;;;4995328;28;20259;-57
2022/06/05 08:51:36;;;;;;;6.40;4.00;;;14.50;58.10;;;;;;4995178;28;20689;-54
2022/06/05 08:54:13;;;;;;;4.18;3.65;;;14.50;58.10;;;;;;4975144;28;20202;-55
2022/06/05 08:56:47;;;;;;;4.68;3.85;;;14.50;58.10;;;;;;4975247;28;20225;-57
2022/06/05 08:59:23;;;;;;;5.40;4.22;;;14.50;58.10;;;;;;4975669;28;20213;-51
2022/06/05 09:02:01;;;;;;;5.60;4.57;;;14.50;58.10;;;;;;4975657;28;20290;-54
2022/06/05 09:04:53;;;;;;;6.25;4.45;;;14.50;58.50;;;;;;4975284;28;20205;-48
2022/06/05 09:07:31;;;;;;;5.75;4.22;;;14.50;58.90;;;;;;4992937;28;20227;-57
2022/06/05 09:10:06;;;;;;;6.45;4.22;;;14.50;59.00;;;;;;5009775;28;20197;-59
2022/06/05 09:12:43;;;;;;;5.55;4.35;;;14.50;58.80;;;;;;5007513;28;20216;-47
2022/06/05 09:15:20;;;;;;;5.80;4.50;;;14.50;58.70;;;;;;5011229;28;20203;-49
2022/06/05 09:17:57;;;;;;;4.50;4.05;;;14.50;58.70;;;;;;5010903;28;20243;-48
2022/06/05 09:20:44;;;;;;;4.22;3.67;;;14.60;58.70;;;;;;5008862;28;20243;-47
2022/06/05 09:23:28;;;;;;;5.35;4.20;;;14.60;58.70;;;;;;5010590;28;20573;-47
2022/06/05 09:26:08;;;;;;;4.65;4.03;;;14.60;58.60;;;;;;5011064;28;20197;-47
2022/06/05 09:29:09;;;;;;;5.60;4.45;;;14.50;58.50;;;;;;5011711;28;20188;-52
2022/06/05 09:31:58;;;;;;;5.07;4.30;;;14.60;58.50;;;;;;5010642;28;20902;-50
2022/06/05 09:34:32;;;;;;;4.80;4.25;;;14.60;58.50;;;;;;5010132;28;20684;-47
2022/06/05 09:37:10;;;;;;;5.32;4.10;;;14.60;58.50;;;;;;5009436;28;20225;-60
2022/06/05 09:39:45;;;;;;;5.15;4.35;;;14.60;58.50;;;;;;5009324;28;20192;-47
2022/06/05 09:42:55;;;;;;;5.60;3.85;;;14.60;58.50;;;;;;5010606;28;20212;-48
2022/06/05 09:45:40;;;;;;;4.40;4.00;;;14.60;58.60;;;;;;5003609;28;20683;-48
2022/06/05 09:48:21;;;;;;;4.90;3.95;;;14.60;58.50;;;;;;5010146;28;20224;-59
2022/06/05 09:50:52;;;;;;;6.68;4.53;;;14.60;58.50;;;;;;5010258;28;20203;-49
2022/06/05 09:53:28;;;;;;;4.65;3.90;;;14.60;58.50;;;;;;5010413;28;20648;-48
2022/06/05 09:56:09;;;;;;;4.47;3.38;;;14.60;58.50;;;;;;5001974;28;20641;-53
2022/06/05 09:58:51;;;;;;;4.90;4.40;;;14.60;58.50;;;;;;4992780;28;20201;-48
2022/06/05 10:01:30;;;;;;;5.07;4.53;;;14.60;58.50;;;;;;4991408;28;20556;-48
2022/06/05 10:04:02;;;;;;;5.90;4.10;;;14.60;58.40;;;;;;5008495;28;20201;-51
2022/06/05 10:06:39;;;;;;;4.88;3.72;;;14.60;58.40;;;;;;5007620;28;20221;-56
2022/06/05 10:09:14;;;;;;;5.05;4.20;;;14.60;58.50;;;;;;5005763;28;20209;-48
2022/06/05 10:11:57;;;;;;;5.40;4.10;;;14.60;58.40;;;;;;5005521;28;20223;-49
2022/06/05 10:14:44;;;;;;;5.43;4.18;;;14.60;58.50;;;;;;5004831;28;20227;-58
2022/06/05 10:17:48;;;;;;;4.70;4.22;;;14.60;58.40;;;;;;4991552;28;20225;-47
2022/06/05 10:20:37;;;;;;;4.85;3.97;;;14.60;58.40;;;;;;4989554;28;20654;-48
2022/06/05 10:23:21;;;;;;;5.57;4.28;;;14.60;58.40;;;;;;4992972;28;20598;-48
2022/06/05 10:26:04;;;;;;;4.82;3.85;;;14.60;58.50;;;;;;4992941;28;20209;-48
2022/06/05 10:28:42;;;;;;;4.32;3.80;;;14.60;58.50;;;;;;4992415;28;20205;-47
2022/06/05 10:31:15;;;;;;;4.40;3.55;;;14.60;58.50;;;;;;4993001;28;20205;-48
2022/06/05 10:33:55;;;;;;;4.43;3.88;;;14.60;58.50;;;;;;4991780;28;20205;-48
2022/06/05 10:36:28;;;;;;;5.05;4.47;;;14.60;58.50;;;;;;4991809;28;20224;-48
2022/06/05 10:39:06;;;;;;;5.00;4.22;;;14.60;58.50;;;;;;4991723;28;20198;-50
2022/06/05 10:41:40;;;;;;;4.38;3.90;;;14.60;58.50;;;;;;4992202;28;20688;-53
2022/06/05 10:44:25;;;;;;;5.13;3.92;;;14.60;58.50;;;;;;4991900;28;20673;-50
2022/06/05 10:47:08;;;;;;;5.15;4.15;;;14.60;58.40;;;;;;4992088;28;20244;-48
2022/06/05 10:49:47;;;;;;;5.20;3.88;;;14.60;58.40;;;;;;4991170;28;20198;-48
2022/06/05 10:52:28;;;;;;;4.68;3.63;;;14.60;58.40;;;;;;4991935;28;20620;-50
2022/06/05 10:55:16;;;;;;;4.40;3.75;;;14.60;58.40;;;;;;4991997;28;20205;-54
2022/06/05 10:57:54;;;;;;;4.20;3.78;;;14.60;58.40;;;;;;4991928;28;20214;-48
2022/06/05 11:00:33;;;;;;;5.63;4.20;;;14.60;58.40;;;;;;4991791;28;20240;-48
2022/06/05 11:03:16;;;;;;;4.43;4.03;;;14.60;58.40;;;;;;4972221;28;20252;-60
2022/06/05 11:05:57;;;;;;;5.32;3.83;;;14.60;58.40;;;;;;4972880;28;20198;-48
2022/06/05 11:08:36;;;;;;;4.03;3.65;;;14.60;58.40;;;;;;4972936;28;20230;-48
2022/06/05 11:14:20;;;;;;;4.68;3.70;;;14.60;58.40;;;;;;4972194;28;20201;-51
2022/06/05 11:16:58;;;;;;;4.25;3.60;;;14.60;58.40;;;;;;4982741;28;20224;-47
2022/06/05 11:19:38;;;;;;;4.20;3.38;;;14.60;58.50;;;;;;4991345;28;20192;-49
2022/06/05 11:22:14;;;;;;;4.10;3.70;;;14.60;58.50;;;;;;4991593;28;20204;-55
2022/06/05 11:24:48;;;;;;;4.65;3.33;;;14.60;58.40;;;;;;4991705;28;20209;-48
2022/06/05 11:27:29;;;;;;;5.50;3.90;;;14.60;58.40;;;;;;4992373;28;20614;-47
2022/06/05 11:30:08;;;;;;;4.47;3.63;;;14.60;58.40;;;;;;4992047;28;20212;-50
2022/06/05 11:32:50;;;;;;;5.35;3.92;;;14.60;58.40;;;;;;4991467;28;20229;-47
2022/06/05 11:35:30;;;;;;;5.40;3.50;;;14.60;58.40;;;;;;4991429;28;20801;-53
2022/06/05 11:38:07;;;;;;;4.40;3.55;;;14.60;58.40;;;;;;4991834;28;20218;-48
2022/06/05 11:40:47;;;;;;;4.80;3.55;;;14.60;58.30;;;;;;4990853;28;20208;-48
2022/06/05 11:43:30;;;;;;;4.47;3.55;;;14.60;58.40;;;;;;4991933;28;20201;-48
2022/06/05 11:46:07;;;;;;;4.70;4.15;;;14.60;58.30;;;;;;4991412;28;20202;-47
2022/06/05 11:48:44;;;;;;;4.65;3.72;;;14.60;58.30;;;;;;4991408;28;20197;-47
2022/06/05 11:51:23;;;;;;;3.75;3.28;;;14.60;58.40;;;;;;4991471;28;20197;-50
2022/06/05 11:54:07;;;;;;;4.45;3.47;;;14.60;58.40;;;;;;4991445;28;20229;-47
2022/06/05 11:56:50;;;;;;;4.75;3.60;;;14.60;58.40;;;;;;4978529;28;20209;-47
2022/06/05 11:59:29;;;;;;;4.22;3.63;;;14.60;58.40;;;;;;4985306;28;20217;-48
2022/06/05 12:02:14;;;;;;;4.32;3.80;;;14.60;58.50;;;;;;4993118;28;20201;-47
2022/06/05 12:04:54;;;;;;;4.15;3.35;;;14.60;58.50;;;;;;4995630;28;20207;-47
2022/06/05 12:07:27;;;;;;;3.97;3.28;;;14.60;58.40;;;;;;4995101;28;20228;-48
2022/06/05 12:10:02;;;;;;;3.47;3.08;;;14.60;58.40;;;;;;4995369;28;20869;-48
2022/06/05 12:12:38;;;;;;;3.88;3.47;;;14.60;58.40;;;;;;4994948;28;20231;-49
2022/06/05 12:15:23;;;;;;;4.05;3.58;;;14.60;58.40;;;;;;4994741;28;20219;-52
2022/06/05 12:18:02;;;;;;;5.13;3.65;;;14.60;58.40;;;;;;4994819;28;20609;-56
2022/06/05 12:20:43;;;;;;;4.10;3.45;;;14.60;58.40;;;;;;4994918;28;20193;-47
2022/06/05 12:23:21;;;;;;;3.45;2.90;;;14.60;58.40;;;;;;4995365;28;20201;-47
2022/06/05 12:25:56;;;;;;;4.20;3.40;;;14.60;58.40;;;;;;4995519;28;20924;-47
2022/06/05 12:28:33;;;;;;;3.88;3.20;;;14.60;58.40;;;;;;4995213;28;20193;-48
2022/06/05 12:31:12;;;;;;;4.05;3.63;;;14.60;58.40;;;;;;4994387;28;20197;-48
2022/06/05 12:33:49;;;;;;;3.90;2.92;;;14.60;58.40;;;;;;4994597;28;20233;-52
2022/06/05 12:36:29;;;;;;;4.18;3.65;;;14.60;58.40;;;;;;4993424;28;20217;-48
2022/06/05 12:39:02;;;;;;;3.45;2.85;;;14.50;58.40;;;;;;4994291;28;20219;-56
2022/06/05 12:41:47;;;;;;;3.90;2.95;;;14.60;58.50;;;;;;4995074;28;20209;-48
2022/06/05 12:44:25;;;;;;;3.30;3.00;;;14.60;58.50;;;;;;4995548;28;20205;-48
2022/06/05 12:47:02;;;;;;;3.40;3.10;;;14.60;58.50;;;;;;4994227;28;20891;-47
2022/06/05 12:49:49;;;;;;;3.85;3.45;;;14.60;58.50;;;;;;4993894;28;20216;-47
2022/06/05 12:52:39;;;;;;;3.08;2.75;;;14.60;58.50;;;;;;4993738;28;20677;-49
2022/06/05 12:55:16;;;;;;;3.95;2.83;;;14.60;58.50;;;;;;4993593;28;20202;-49
2022/06/05 12:57:59;;;;;;;3.65;3.25;;;14.60;59.00;;;;;;4992457;28;20696;-50
2022/06/05 13:00:53;;;;;;;3.45;3.08;;;14.60;59.20;;;;;;4993079;28;20236;-52
2022/06/05 13:03:38;;;;;;;4.18;3.00;;;14.60;59.10;;;;;;4991486;28;20201;-54
2022/06/05 13:06:14;;;;;;;4.68;2.97;;;14.60;58.90;;;;;;4992415;28;20677;-48
2022/06/05 13:08:50;;;;;;;3.55;3.10;;;14.60;58.90;;;;;;4992885;28;20204;-52
2022/06/05 13:11:26;;;;;;;3.47;2.85;;;14.60;58.80;;;;;;4992792;28;20210;-48
2022/06/05 13:14:05;;;;;;;3.55;2.63;;;14.60;58.80;;;;;;4992973;28;20896;-47
2022/06/05 13:16:42;;;;;;;3.10;2.80;;;14.60;58.80;;;;;;4992904;28;20229;-49
2022/06/05 13:19:30;;;;;;;3.83;2.72;;;14.60;58.80;;;;;;4992004;28;20197;-47
2022/06/05 13:22:11;;;;;;;3.95;3.13;;;14.60;58.80;;;;;;4992697;28;20205;-49
2022/06/05 13:24:55;;;;;;;3.10;2.78;;;14.60;58.80;;;;;;4992297;28;20260;-48
2022/06/05 13:27:47;;;;;;;3.65;3.15;;;14.60;58.80;;;;;;4992841;28;20241;-50
2022/06/05 13:30:21;;;;;;;2.90;2.60;;;14.60;58.80;;;;;;4992698;28;20206;-52
2022/06/05 13:33:01;;;;;;;3.45;3.13;;;14.60;58.80;;;;;;4992662;28;20228;-58
2022/06/05 13:35:44;;;;;;;3.20;2.75;;;14.60;58.80;;;;;;4991750;28;20666;-48
2022/06/05 13:38:22;;;;;;;3.85;3.13;;;14.60;58.80;;;;;;4992194;28;20198;-48
2022/06/05 13:41:04;;;;;;;3.35;3.05;;;14.60;58.80;;;;;;4992313;28;20256;-47
2022/06/05 13:43:38;;;;;;;3.92;3.05;;;14.60;58.80;;;;;;4992669;28;20205;-48
2022/06/05 13:46:25;;;;;;;3.40;2.92;;;14.60;58.70;;;;;;4992628;28;20200;-48
2022/06/05 13:49:06;;;;;;;3.17;2.78;;;14.60;58.70;;;;;;4992153;28;20202;-50